METAR AND TAF INFORMATION
METAR FOR EDDF
ADDS - METARS form results

(2030 UTC 17 November 2018)
Data provider http://aviationweather.gov/metar/data/
 
METAR text: EDDF 172020Z 02016KT CAVOK 04/M02 Q1029 NOSIG
Conditions at: EDDF (FRANKFURT MAIN A, DE) observed 2020 UTC 17 November 2018
Temperature: 4.0°C (39°F)
Dewpoint: -2.0°C (28°F) [RH = 65%]
Pressure (altimeter): 30.38 inches Hg (1029.0 mb)
Winds: from the NNE (20 degrees) at 18 MPH (16 knots; 8.2 m/s)
Visibility: 6 or more miles (10+ km)
Ceiling: ceiling and visibility are OK
Clouds: unknown
Weather: no significant weather observed at this time

METAR text: EDDF 171950Z 01014KT CAVOK 04/M02 Q1029 NOSIG
Conditions at: EDDF (FRANKFURT MAIN A, DE) observed 1950 UTC 17 November 2018
Temperature: 4.0°C (39°F)
Dewpoint: -2.0°C (28°F) [RH = 65%]
Pressure (altimeter): 30.38 inches Hg (1029.0 mb)
Winds: from the N (10 degrees) at 16 MPH (14 knots; 7.2 m/s)
Visibility: 6 or more miles (10+ km)
Ceiling: ceiling and visibility are OK
Clouds: unknown
Weather: no significant weather observed at this time

Forecast for: EDDF (FRANKFURT MAIN A, DE)
Text: TAF EDDF 171700Z 1718/1824 03010KT CAVOK
Forecast period: 1800 UTC 17 November 2018 to 0000 UTC 19 November 2018
Forecast type: FROM: standard forecast or significant change
Winds: from the NNE (30 degrees) at 12 MPH (10 knots; 5.1 m/s)
Visibility: 6 or more miles 10+ km)
Ceiling: unknown
Clouds: missing
Weather: NSW  (no significant weather)
Text: PROB30
Forecast period: 1200 to 1500 UTC 18 November 2018
Forecast type: TEMPORARY: The following changes expected for less than half the time period
Winds: from the NE (40 degrees) at 17 MPH (15 knots; 7.7 m/s)
gusting to 29 MPH (25 knots; 12.9 m/s)
Visibility: missing
Ceiling: unknown
Clouds: missing
Weather: no significant weather forecast for this period

 AIRPORT MAP

 RUNWAY INFORMATION

 AIRPORT FREQUENCIES
Type A/D Name LANGEN RAD Frequency 118.45 MHZ
Type A/D Name LANGEN RAD Frequency 127.275 MHZ
Type AFIS Name LANGEN INF Frequency 119.15 MHZ
Type ATIS Name ATIS Frequency 118.025 MHZ
Type CLD Name DELIVERY Frequency 121.9 MHZ
Type DIR Name DIR Frequency 124.2 MHZ
Type GND Name GND Frequency 121.8 MHZ
Type RMP Name APN Frequency 121.7 MHZ
Type TWR Name TWR Frequency 119.9 MHZ

 AIRPORT NEAR NAVIGATION AIDS
Type VORTAC Name Frankfurt Frequency 114200 KHZ
Type NDB Name Frankfurt Frequency 297 KHZ
Type DME Name Frankfurt Frequency 115900 KHZ
Type NDB Name Frankfurt Frequency 382 KHZ



2018 Air Astana Virtual Airline